Terminal Aerodrome Forecast
Issued by NWS

Home | Current Version | Previous Version | Text Only | Print | Product List | Glossary On
Versions: 1 2 3 4 5 6 7 8 9 10 11 12 13 14 15 16 17 18 19 20
000
FTUS43 KDLH 242300
TAFHYR
TAF
KHYR 242337Z 2500/2524 33010G17KT P6SM VCSH OVC015
     FM250400 32007KT P6SM -SN OVC015
     FM251000 27005KT P6SM OVC018
     FM251600 24004KT P6SM BKN022 BKN080=

USA.gov is the U.S. government's official web portal to all federal, state and local government web resources and services.